sensor_id;sensor_type;location;lat;lon;timestamp;pressure;altitude;pressure_sealevel;temperature;humidity
67840;BME280;54636;51.684;5.142;2023-02-22T00:00:12;101617.16;;;5.56;100.00
67840;BME280;54636;51.684;5.142;2023-02-22T00:02:51;101609.50;;;5.54;100.00
67840;BME280;54636;51.684;5.142;2023-02-22T00:05:27;101605.38;;;5.50;100.00
67840;BME280;54636;51.684;5.142;2023-02-22T00:07:53;101611.19;;;5.48;100.00
67840;BME280;54636;51.684;5.142;2023-02-22T00:10:22;101611.19;;;5.77;100.00
67840;BME280;54636;51.684;5.142;2023-02-22T00:12:52;101594.03;;;5.71;100.00
67840;BME280;54636;51.684;5.142;2023-02-22T00:15:20;101594.78;;;5.72;100.00
67840;BME280;54636;51.684;5.142;2023-02-22T00:17:46;101594.75;;;5.59;100.00
67840;BME280;54636;51.684;5.142;2023-02-22T00:20:13;101580.31;;;5.37;100.00
67840;BME280;54636;51.684;5.142;2023-02-22T00:22:43;101599.09;;;5.40;100.00
67840;BME280;54636;51.684;5.142;2023-02-22T00:25:13;101583.63;;;5.28;100.00
67840;BME280;54636;51.684;5.142;2023-02-22T00:27:39;101601.34;;;5.42;100.00
67840;BME280;54636;51.684;5.142;2023-02-22T00:30:05;101602.66;;;5.21;100.00
67840;BME280;54636;51.684;5.142;2023-02-22T00:32:31;101589.75;;;5.00;100.00
67840;BME280;54636;51.684;5.142;2023-02-22T00:34:57;101574.75;;;5.15;100.00
67840;BME280;54636;51.684;5.142;2023-02-22T00:37:23;101593.59;;;5.15;100.00
67840;BME280;54636;51.684;5.142;2023-02-22T00:39:49;101588.41;;;5.08;100.00
67840;BME280;54636;51.684;5.142;2023-02-22T00:42:16;101584.19;;;5.07;100.00
67840;BME280;54636;51.684;5.142;2023-02-22T00:44:42;101566.34;;;4.96;100.00
67840;BME280;54636;51.684;5.142;2023-02-22T00:47:08;101609.56;;;5.22;100.00
67840;BME280;54636;51.684;5.142;2023-02-22T00:49:33;101601.91;;;5.20;100.00
67840;BME280;54636;51.684;5.142;2023-02-22T00:51:59;101605.25;;;5.24;100.00
67840;BME280;54636;51.684;5.142;2023-02-22T00:54:25;101565.59;;;4.96;100.00
67840;BME280;54636;51.684;5.142;2023-02-22T00:56:51;101585.84;;;5.17;100.00
67840;BME280;54636;51.684;5.142;2023-02-22T00:59:16;101576.34;;;5.12;100.00
67840;BME280;54636;51.684;5.142;2023-02-22T01:01:42;101579.66;;;5.33;100.00
67840;BME280;54636;51.684;5.142;2023-02-22T01:04:08;101581.59;;;5.32;100.00
67840;BME280;54636;51.684;5.142;2023-02-22T01:06:34;101574.00;;;5.43;100.00
67840;BME280;54636;51.684;5.142;2023-02-22T01:09:00;101574.78;;;5.27;100.00
67840;BME280;54636;51.684;5.142;2023-02-22T01:11:26;101555.91;;;5.15;100.00
67840;BME280;54636;51.684;5.142;2023-02-22T01:13:51;101570.34;;;5.21;100.00
67840;BME280;54636;51.684;5.142;2023-02-22T01:16:21;101567.88;;;5.26;100.00
67840;BME280;54636;51.684;5.142;2023-02-22T01:18:47;101565.63;;;5.25;100.00
67840;BME280;54636;51.684;5.142;2023-02-22T01:21:12;101539.16;;;5.07;100.00
67840;BME280;54636;51.684;5.142;2023-02-22T01:23:38;101563.34;;;5.23;100.00
67840;BME280;54636;51.684;5.142;2023-02-22T01:26:04;101569.41;;;5.27;100.00
67840;BME280;54636;51.684;5.142;2023-02-22T01:28:33;101561.75;;;5.26;100.00
67840;BME280;54636;51.684;5.142;2023-02-22T01:30:59;101565.53;;;5.28;100.00
67840;BME280;54636;51.684;5.142;2023-02-22T01:33:25;101558.50;;;5.18;100.00
67840;BME280;54636;51.684;5.142;2023-02-22T01:35:51;101558.88;;;5.33;100.00
67840;BME280;54636;51.684;5.142;2023-02-22T01:38:16;101556.78;;;5.24;100.00
67840;BME280;54636;51.684;5.142;2023-02-22T01:40:47;101539.06;;;5.11;100.00
67840;BME280;54636;51.684;5.142;2023-02-22T01:43:22;101554.28;;;5.17;100.00
67840;BME280;54636;51.684;5.142;2023-02-22T01:48:34;101551.19;;;5.19;100.00
67840;BME280;54636;51.684;5.142;2023-02-22T01:51:06;101548.78;;;5.21;100.00
67840;BME280;54636;51.684;5.142;2023-02-22T01:53:44;101532.84;;;5.14;100.00
67840;BME280;54636;51.684;5.142;2023-02-22T01:56:11;101547.59;;;5.22;100.00
67840;BME280;54636;51.684;5.142;2023-02-22T01:58:40;101541.47;;;5.21;100.00
67840;BME280;54636;51.684;5.142;2023-02-22T02:01:08;101524.00;;;5.13;100.00
67840;BME280;54636;51.684;5.142;2023-02-22T02:03:35;101510.41;;;5.04;100.00
67840;BME280;54636;51.684;5.142;2023-02-22T02:06:06;101510.81;;;5.03;100.00
67840;BME280;54636;51.684;5.142;2023-02-22T02:11:01;101523.16;;;5.16;100.00
67840;BME280;54636;51.684;5.142;2023-02-22T02:13:27;101520.38;;;5.20;100.00
67840;BME280;54636;51.684;5.142;2023-02-22T02:15:54;101519.63;;;5.19;100.00
67840;BME280;54636;51.684;5.142;2023-02-22T02:18:20;101509.69;;;5.16;100.00
67840;BME280;54636;51.684;5.142;2023-02-22T02:26:35;101506.16;;;5.19;100.00
67840;BME280;54636;51.684;5.142;2023-02-22T02:29:27;101508.09;;;5.19;100.00
67840;BME280;54636;51.684;5.142;2023-02-22T02:35:10;101504.94;;;5.20;100.00
67840;BME280;54636;51.684;5.142;2023-02-22T02:43:12;101475.81;;;5.03;100.00
67840;BME280;54636;51.684;5.142;2023-02-22T02:45:48;101493.63;;;5.13;100.00
67840;BME280;54636;51.684;5.142;2023-02-22T02:48:18;101478.31;;;5.10;100.00
67840;BME280;54636;51.684;5.142;2023-02-22T02:50:48;101482.19;;;5.09;100.00
67840;BME280;54636;51.684;5.142;2023-02-22T02:53:21;101476.28;;;5.14;100.00
67840;BME280;54636;51.684;5.142;2023-02-22T02:55:49;101461.09;;;5.07;100.00
67840;BME280;54636;51.684;5.142;2023-02-22T02:58:20;101471.25;;;5.16;100.00
67840;BME280;54636;51.684;5.142;2023-02-22T03:00:48;101471.75;;;5.11;100.00
67840;BME280;54636;51.684;5.142;2023-02-22T03:03:28;101467.38;;;5.17;100.00
67840;BME280;54636;51.684;5.142;2023-02-22T03:06:15;101464.53;;;5.08;100.00
67840;BME280;54636;51.684;5.142;2023-02-22T03:09:10;101463.91;;;5.16;100.00
67840;BME280;54636;51.684;5.142;2023-02-22T03:14:49;101463.13;;;5.03;100.00
67840;BME280;54636;51.684;5.142;2023-02-22T03:17:30;101464.91;;;4.93;100.00
67840;BME280;54636;51.684;5.142;2023-02-22T03:20:09;101467.31;;;5.04;100.00
67840;BME280;54636;51.684;5.142;2023-02-22T03:22:41;101447.00;;;4.87;100.00
67840;BME280;54636;51.684;5.142;2023-02-22T03:25:47;101460.97;;;4.82;100.00
67840;BME280;54636;51.684;5.142;2023-02-22T03:28:12;101436.28;;;4.71;100.00
67840;BME280;54636;51.684;5.142;2023-02-22T03:33:16;101438.13;;;4.74;100.00
67840;BME280;54636;51.684;5.142;2023-02-22T03:35:58;101444.84;;;4.82;100.00
67840;BME280;54636;51.684;5.142;2023-02-22T03:38:26;101436.84;;;4.78;100.00
67840;BME280;54636;51.684;5.142;2023-02-22T03:40:57;101416.84;;;4.79;100.00
67840;BME280;54636;51.684;5.142;2023-02-22T03:43:28;101389.25;;;4.75;100.00
67840;BME280;54636;51.684;5.142;2023-02-22T03:45:55;101413.75;;;4.93;100.00
67840;BME280;54636;51.684;5.142;2023-02-22T03:51:04;101402.66;;;4.91;100.00
67840;BME280;54636;51.684;5.142;2023-02-22T03:53:31;101397.38;;;4.88;100.00
67840;BME280;54636;51.684;5.142;2023-02-22T03:55:59;101403.94;;;4.87;100.00
67840;BME280;54636;51.684;5.142;2023-02-22T03:58:30;101366.91;;;4.49;100.00
67840;BME280;54636;51.684;5.142;2023-02-22T04:00:57;101380.84;;;4.73;100.00
67840;BME280;54636;51.684;5.142;2023-02-22T04:03:22;101398.75;;;4.80;100.00
67840;BME280;54636;51.684;5.142;2023-02-22T04:05:48;101402.28;;;4.77;100.00
67840;BME280;54636;51.684;5.142;2023-02-22T04:08:14;101387.38;;;4.88;100.00
67840;BME280;54636;51.684;5.142;2023-02-22T04:10:40;101395.34;;;4.63;100.00
67840;BME280;54636;51.684;5.142;2023-02-22T04:13:05;101389.25;;;4.75;100.00
67840;BME280;54636;51.684;5.142;2023-02-22T04:15:31;101388.44;;;4.62;100.00
67840;BME280;54636;51.684;5.142;2023-02-22T04:17:57;101380.06;;;4.60;100.00
67840;BME280;54636;51.684;5.142;2023-02-22T04:20:23;101379.94;;;4.51;100.00
67840;BME280;54636;51.684;5.142;2023-02-22T04:22:51;101362.53;;;4.68;100.00
67840;BME280;54636;51.684;5.142;2023-02-22T04:25:17;101359.72;;;4.59;100.00
67840;BME280;54636;51.684;5.142;2023-02-22T04:27:43;101339.34;;;4.45;100.00
67840;BME280;54636;51.684;5.142;2023-02-22T04:32:14;101349.66;;;4.76;100.00
67840;BME280;54636;51.684;5.142;2023-02-22T04:34:40;101351.34;;;4.70;100.00
67840;BME280;54636;51.684;5.142;2023-02-22T04:37:05;101350.97;;;4.84;100.00
67840;BME280;54636;51.684;5.142;2023-02-22T04:39:32;101361.69;;;4.71;100.00
67840;BME280;54636;51.684;5.142;2023-02-22T04:41:57;101352.72;;;4.61;100.00
67840;BME280;54636;51.684;5.142;2023-02-22T04:44:23;101335.56;;;4.43;100.00
67840;BME280;54636;51.684;5.142;2023-02-22T04:46:48;101361.53;;;4.62;100.00
67840;BME280;54636;51.684;5.142;2023-02-22T04:49:13;101367.44;;;4.57;100.00
67840;BME280;54636;51.684;5.142;2023-02-22T04:51:39;101367.88;;;4.55;100.00
67840;BME280;54636;51.684;5.142;2023-02-22T04:54:05;101365.66;;;4.67;100.00
67840;BME280;54636;51.684;5.142;2023-02-22T04:56:30;101367.16;;;4.55;100.00
67840;BME280;54636;51.684;5.142;2023-02-22T04:58:56;101365.09;;;4.59;100.00
67840;BME280;54636;51.684;5.142;2023-02-22T05:01:21;101358.00;;;4.52;100.00
67840;BME280;54636;51.684;5.142;2023-02-22T05:03:47;101362.81;;;4.57;100.00
67840;BME280;54636;51.684;5.142;2023-02-22T05:06:13;101357.59;;;4.67;100.00
67840;BME280;54636;51.684;5.142;2023-02-22T05:08:38;101354.13;;;4.53;100.00
67840;BME280;54636;51.684;5.142;2023-02-22T05:11:04;101353.88;;;4.48;100.00
67840;BME280;54636;51.684;5.142;2023-02-22T05:13:30;101361.44;;;4.53;100.00
67840;BME280;54636;51.684;5.142;2023-02-22T05:15:55;101351.31;;;4.57;100.00
67840;BME280;54636;51.684;5.142;2023-02-22T05:18:21;101343.13;;;4.48;100.00
67840;BME280;54636;51.684;5.142;2023-02-22T05:20:46;101349.59;;;4.50;100.00
67840;BME280;54636;51.684;5.142;2023-02-22T05:23:12;101336.25;;;4.59;100.00
67840;BME280;54636;51.684;5.142;2023-02-22T05:25:37;101337.22;;;4.53;100.00
67840;BME280;54636;51.684;5.142;2023-02-22T05:28:08;101330.53;;;4.57;100.00
67840;BME280;54636;51.684;5.142;2023-02-22T05:30:35;101327.97;;;4.54;100.00
67840;BME280;54636;51.684;5.142;2023-02-22T05:33:03;101324.53;;;4.53;100.00
67840;BME280;54636;51.684;5.142;2023-02-22T05:35:29;101327.97;;;4.54;100.00
67840;BME280;54636;51.684;5.142;2023-02-22T05:37:55;101326.03;;;4.54;100.00
67840;BME280;54636;51.684;5.142;2023-02-22T05:40:23;101309.44;;;4.43;100.00
67840;BME280;54636;51.684;5.142;2023-02-22T05:42:49;101319.91;;;4.54;100.00
67840;BME280;54636;51.684;5.142;2023-02-22T05:45:17;101314.53;;;4.54;100.00
67840;BME280;54636;51.684;5.142;2023-02-22T05:47:45;101313.59;;;4.86;100.00
67840;BME280;54636;51.684;5.142;2023-02-22T05:50:10;101302.91;;;4.70;100.00
67840;BME280;54636;51.684;5.142;2023-02-22T05:52:36;101293.44;;;4.65;100.00
67840;BME280;54636;51.684;5.142;2023-02-22T05:55:03;101300.22;;;4.70;100.00
67840;BME280;54636;51.684;5.142;2023-02-22T05:57:28;101298.38;;;4.54;100.00
67840;BME280;54636;51.684;5.142;2023-02-22T05:59:54;101300.09;;;4.60;100.00
67840;BME280;54636;51.684;5.142;2023-02-22T06:02:19;101296.00;;;4.56;100.00
67840;BME280;54636;51.684;5.142;2023-02-22T06:04:45;101292.53;;;4.55;100.00
67840;BME280;54636;51.684;5.142;2023-02-22T06:07:12;101281.34;;;4.57;100.00
67840;BME280;54636;51.684;5.142;2023-02-22T06:09:37;101278.91;;;4.62;100.00
67840;BME280;54636;51.684;5.142;2023-02-22T06:12:03;101275.13;;;4.60;100.00
67840;BME280;54636;51.684;5.142;2023-02-22T06:14:29;101278.28;;;4.71;100.00
67840;BME280;54636;51.684;5.142;2023-02-22T06:16:56;101272.56;;;4.69;100.00
67840;BME280;54636;51.684;5.142;2023-02-22T06:19:22;101271.06;;;4.68;100.00
67840;BME280;54636;51.684;5.142;2023-02-22T06:21:51;101270.81;;;4.62;100.00
67840;BME280;54636;51.684;5.142;2023-02-22T06:24:17;101272.00;;;4.61;100.00
67840;BME280;54636;51.684;5.142;2023-02-22T06:26:43;101271.50;;;4.79;100.00
67840;BME280;54636;51.684;5.142;2023-02-22T06:29:09;101258.25;;;4.72;100.00
67840;BME280;54636;51.684;5.142;2023-02-22T06:31:34;101262.25;;;4.93;100.00
67840;BME280;54636;51.684;5.142;2023-02-22T06:34:01;101258.91;;;4.76;100.00
67840;BME280;54636;51.684;5.142;2023-02-22T06:36:26;101255.91;;;4.87;100.00
67840;BME280;54636;51.684;5.142;2023-02-22T06:38:55;101252.88;;;4.85;100.00
67840;BME280;54636;51.684;5.142;2023-02-22T06:41:20;101249.88;;;4.83;100.00
67840;BME280;54636;51.684;5.142;2023-02-22T06:43:46;101247.06;;;4.74;100.00
67840;BME280;54636;51.684;5.142;2023-02-22T06:46:12;101250.19;;;4.72;100.00
67840;BME280;54636;51.684;5.142;2023-02-22T06:48:38;101253.28;;;4.71;100.00
67840;BME280;54636;51.684;5.142;2023-02-22T06:51:06;101266.00;;;4.70;100.00
67840;BME280;54636;51.684;5.142;2023-02-22T06:53:33;101267.31;;;4.78;100.00
67840;BME280;54636;51.684;5.142;2023-02-22T06:55:58;101265.16;;;4.86;100.00
67840;BME280;54636;51.684;5.142;2023-02-22T06:58:23;101254.59;;;4.66;100.00
67840;BME280;54636;51.684;5.142;2023-02-22T07:00:49;101266.66;;;4.74;100.00
67840;BME280;54636;51.684;5.142;2023-02-22T07:03:14;101266.44;;;4.81;100.00
67840;BME280;54636;51.684;5.142;2023-02-22T07:05:40;101270.09;;;4.75;100.00
67840;BME280;54636;51.684;5.142;2023-02-22T07:08:06;101280.88;;;4.75;100.00
67840;BME280;54636;51.684;5.142;2023-02-22T07:10:33;101285.91;;;4.73;100.00
67840;BME280;54636;51.684;5.142;2023-02-22T07:13:00;101287.09;;;4.72;100.00
67840;BME280;54636;51.684;5.142;2023-02-22T07:15:27;101287.53;;;4.70;100.00
67840;BME280;54636;51.684;5.142;2023-02-22T07:17:53;101284.84;;;4.70;100.00
67840;BME280;54636;51.684;5.142;2023-02-22T07:20:19;101293.38;;;4.81;100.00
67840;BME280;54636;51.684;5.142;2023-02-22T07:22:45;101287.13;;;4.84;100.00
67840;BME280;54636;51.684;5.142;2023-02-22T07:25:11;101284.00;;;4.86;100.00
67840;BME280;54636;51.684;5.142;2023-02-22T07:27:40;101285.94;;;4.85;100.00
67840;BME280;54636;51.684;5.142;2023-02-22T07:30:24;101293.16;;;4.88;100.00
67840;BME280;54636;51.684;5.142;2023-02-22T07:32:51;101299.81;;;4.84;100.00
67840;BME280;54636;51.684;5.142;2023-02-22T07:35:20;101299.72;;;4.87;100.00
67840;BME280;54636;51.684;5.142;2023-02-22T07:37:46;101301.88;;;4.92;100.00
67840;BME280;54636;51.684;5.142;2023-02-22T07:40:12;101307.91;;;4.96;100.00
67840;BME280;54636;51.684;5.142;2023-02-22T07:42:51;101302.34;;;5.04;100.00
67840;BME280;54636;51.684;5.142;2023-02-22T07:45:17;101295.88;;;5.01;100.00
67840;BME280;54636;51.684;5.142;2023-02-22T07:47:44;101309.31;;;5.01;100.00
67840;BME280;54636;51.684;5.142;2023-02-22T07:50:09;101314.41;;;5.12;100.00
67840;BME280;54636;51.684;5.142;2023-02-22T07:52:36;101306.97;;;5.03;100.00
67840;BME280;54636;51.684;5.142;2023-02-22T07:55:02;101310.09;;;5.14;100.00
67840;BME280;54636;51.684;5.142;2023-02-22T07:57:27;101321.72;;;5.11;100.00
67840;BME280;54636;51.684;5.142;2023-02-22T07:59:52;101309.56;;;5.19;100.00
67840;BME280;54636;51.684;5.142;2023-02-22T08:02:24;101314.94;;;5.19;100.00
67840;BME280;54636;51.684;5.142;2023-02-22T08:04:50;101307.06;;;5.25;100.00
67840;BME280;54636;51.684;5.142;2023-02-22T08:07:15;101307.50;;;5.23;100.00
67840;BME280;54636;51.684;5.142;2023-02-22T08:09:40;101296.19;;;5.28;100.00
67840;BME280;54636;51.684;5.142;2023-02-22T08:12:06;101286.38;;;5.35;100.00
67840;BME280;54636;51.684;5.142;2023-02-22T08:14:31;101291.22;;;5.40;100.00
67840;BME280;54636;51.684;5.142;2023-02-22T08:16:56;101281.53;;;5.42;100.00
67840;BME280;54636;51.684;5.142;2023-02-22T08:19:22;101286.59;;;5.40;100.00
67840;BME280;54636;51.684;5.142;2023-02-22T08:21:47;101286.16;;;5.42;100.00
67840;BME280;54636;51.684;5.142;2023-02-22T08:24:13;101273.22;;;5.49;100.00
67840;BME280;54636;51.684;5.142;2023-02-22T08:26:44;101274.50;;;5.57;100.00
67840;BME280;54636;51.684;5.142;2023-02-22T08:29:09;101264.34;;;5.61;100.00
67840;BME280;54636;51.684;5.142;2023-02-22T08:31:34;101265.09;;;5.62;100.00
67840;BME280;54636;51.684;5.142;2023-02-22T08:34:00;101269.72;;;5.74;100.00
67840;BME280;54636;51.684;5.142;2023-02-22T08:36:25;101278.25;;;5.73;100.00
67840;BME280;54636;51.684;5.142;2023-02-22T08:38:51;101271.66;;;5.74;100.00
67840;BME280;54636;51.684;5.142;2023-02-22T08:41:16;101277.47;;;5.85;100.00
67840;BME280;54636;51.684;5.142;2023-02-22T08:43:42;101264.63;;;5.89;100.00
67840;BME280;54636;51.684;5.142;2023-02-22T08:46:07;101274.41;;;5.95;100.00
67840;BME280;54636;51.684;5.142;2023-02-22T08:48:33;101298.44;;;6.03;100.00
67840;BME280;54636;51.684;5.142;2023-02-22T08:50:58;101284.47;;;6.17;100.00
67840;BME280;54636;51.684;5.142;2023-02-22T08:53:24;101286.63;;;6.22;100.00
67840;BME280;54636;51.684;5.142;2023-02-22T08:55:49;101277.41;;;6.32;100.00
67840;BME280;54636;51.684;5.142;2023-02-22T08:58:15;101282.56;;;6.39;100.00
67840;BME280;54636;51.684;5.142;2023-02-22T09:00:41;101285.59;;;6.50;100.00
67840;BME280;54636;51.684;5.142;2023-02-22T09:03:11;101272.09;;;6.50;100.00
67840;BME280;54636;51.684;5.142;2023-02-22T09:05:41;101268.09;;;6.55;100.00
67840;BME280;54636;51.684;5.142;2023-02-22T09:08:06;101249.69;;;6.63;100.00
67840;BME280;54636;51.684;5.142;2023-02-22T09:10:33;101247.66;;;6.76;100.00
67840;BME280;54636;51.684;5.142;2023-02-22T09:12:59;101240.22;;;6.89;100.00
67840;BME280;54636;51.684;5.142;2023-02-22T09:15:25;101223.53;;;6.81;100.00
67840;BME280;54636;51.684;5.142;2023-02-22T09:17:52;101227.03;;;6.91;100.00
67840;BME280;54636;51.684;5.142;2023-02-22T09:20:20;101220.59;;;6.98;100.00
67840;BME280;54636;51.684;5.142;2023-02-22T09:22:47;101220.94;;;7.18;100.00
67840;BME280;54636;51.684;5.142;2023-02-22T09:25:13;101234.00;;;7.19;100.00
67840;BME280;54636;51.684;5.142;2023-02-22T09:27:38;101235.38;;;7.24;100.00
67840;BME280;54636;51.684;5.142;2023-02-22T09:30:05;101239.47;;;7.38;100.00
67840;BME280;54636;51.684;5.142;2023-02-22T09:32:31;101229.84;;;7.37;100.00
67840;BME280;54636;51.684;5.142;2023-02-22T09:34:56;101232.25;;;7.35;100.00
67840;BME280;54636;51.684;5.142;2023-02-22T09:37:21;101241.81;;;7.26;100.00
67840;BME280;54636;51.684;5.142;2023-02-22T09:39:47;101235.88;;;7.41;100.00
67840;BME280;54636;51.684;5.142;2023-02-22T09:45:20;101235.91;;;7.68;100.00
67840;BME280;54636;51.684;5.142;2023-02-22T09:47:51;101236.22;;;7.70;100.00
67840;BME280;54636;51.684;5.142;2023-02-22T09:50:28;101244.78;;;7.78;100.00
67840;BME280;54636;51.684;5.142;2023-02-22T09:53:11;101237.53;;;7.84;100.00
67840;BME280;54636;51.684;5.142;2023-02-22T09:55:50;101243.25;;;7.95;100.00
67840;BME280;54636;51.684;5.142;2023-02-22T10:00:59;101228.38;;;8.18;100.00
67840;BME280;54636;51.684;5.142;2023-02-22T10:03:35;101232.56;;;8.28;100.00
67840;BME280;54636;51.684;5.142;2023-02-22T10:06:11;101233.63;;;8.40;100.00
67840;BME280;54636;51.684;5.142;2023-02-22T10:08:39;101225.47;;;8.49;100.00
67840;BME280;54636;51.684;5.142;2023-02-22T10:14:19;101227.09;;;8.55;100.00
67840;BME280;54636;51.684;5.142;2023-02-22T10:17:03;101223.66;;;8.46;100.00
67840;BME280;54636;51.684;5.142;2023-02-22T10:24:59;101233.41;;;8.62;100.00
67840;BME280;54636;51.684;5.142;2023-02-22T10:28:17;101232.78;;;8.67;100.00
67840;BME280;54636;51.684;5.142;2023-02-22T10:35:37;101233.69;;;8.64;100.00
67840;BME280;54636;51.684;5.142;2023-02-22T10:38:24;101238.66;;;8.65;100.00
67840;BME280;54636;51.684;5.142;2023-02-22T10:43:41;101238.63;;;8.74;100.00
67840;BME280;54636;51.684;5.142;2023-02-22T10:46:12;101230.34;;;8.78;100.00
67840;BME280;54636;51.684;5.142;2023-02-22T10:48:41;101231.69;;;8.82;100.00
67840;BME280;54636;51.684;5.142;2023-02-22T10:51:09;101237.66;;;8.96;100.00
67840;BME280;54636;51.684;5.142;2023-02-22T10:53:36;101229.34;;;8.99;100.00
67840;BME280;54636;51.684;5.142;2023-02-22T10:56:15;101224.06;;;9.05;100.00
67840;BME280;54636;51.684;5.142;2023-02-22T10:58:55;101234.53;;;9.12;100.00
67840;BME280;54636;51.684;5.142;2023-02-22T11:06:32;101228.38;;;9.35;100.00
67840;BME280;54636;51.684;5.142;2023-02-22T11:09:13;101224.13;;;9.43;100.00
67840;BME280;54636;51.684;5.142;2023-02-22T11:11:41;101222.09;;;9.53;100.00
67840;BME280;54636;51.684;5.142;2023-02-22T11:14:08;101221.63;;;9.54;100.00
67840;BME280;54636;51.684;5.142;2023-02-22T11:16:39;101210.97;;;9.51;100.00
67840;BME280;54636;51.684;5.142;2023-02-22T11:19:11;101214.31;;;9.46;99.81
67840;BME280;54636;51.684;5.142;2023-02-22T11:21:42;101211.94;;;9.39;100.00
67840;BME280;54636;51.684;5.142;2023-02-22T11:24:09;101220.88;;;9.30;100.00
67840;BME280;54636;51.684;5.142;2023-02-22T11:26:42;101213.38;;;9.25;100.00
67840;BME280;54636;51.684;5.142;2023-02-22T11:29:25;101208.31;;;9.18;100.00
67840;BME280;54636;51.684;5.142;2023-02-22T11:31:51;101209.06;;;9.18;100.00
67840;BME280;54636;51.684;5.142;2023-02-22T11:34:31;101208.00;;;9.16;100.00
67840;BME280;54636;51.684;5.142;2023-02-22T11:39:39;101193.13;;;9.11;100.00
67840;BME280;54636;51.684;5.142;2023-02-22T11:42:22;101184.09;;;9.14;100.00
67840;BME280;54636;51.684;5.142;2023-02-22T11:44:48;101192.00;;;9.27;100.00
67840;BME280;54636;51.684;5.142;2023-02-22T11:47:31;101172.66;;;9.34;100.00
67840;BME280;54636;51.684;5.142;2023-02-22T11:49:56;101170.06;;;9.40;100.00
67840;BME280;54636;51.684;5.142;2023-02-22T11:52:36;101172.38;;;9.56;100.00
67840;BME280;54636;51.684;5.142;2023-02-22T11:55:16;101147.31;;;9.61;100.00
67840;BME280;54636;51.684;5.142;2023-02-22T11:57:49;101175.69;;;10.04;100.00
67840;BME280;54636;51.684;5.142;2023-02-22T12:03:20;101166.03;;;10.62;100.00
67840;BME280;54636;51.684;5.142;2023-02-22T12:08:51;101145.34;;;10.85;98.24
67840;BME280;54636;51.684;5.142;2023-02-22T12:11:27;101158.06;;;10.94;96.52
67840;BME280;54636;51.684;5.142;2023-02-22T12:19:38;101153.97;;;10.83;96.60
67840;BME280;54636;51.684;5.142;2023-02-22T12:22:14;101147.59;;;10.86;96.69
67840;BME280;54636;51.684;5.142;2023-02-22T12:24:47;101146.38;;;10.87;96.49
67840;BME280;54636;51.684;5.142;2023-02-22T12:27:19;101153.31;;;10.88;97.20
67840;BME280;54636;51.684;5.142;2023-02-22T12:29:56;101150.03;;;10.84;97.26
67840;BME280;54636;51.684;5.142;2023-02-22T12:32:45;101149.56;;;10.86;98.14
67840;BME280;54636;51.684;5.142;2023-02-22T12:35:22;101146.09;;;10.85;97.64
67840;BME280;54636;51.684;5.142;2023-02-22T12:37:57;101145.22;;;10.94;98.28
67840;BME280;54636;51.684;5.142;2023-02-22T12:40:45;101148.56;;;11.04;97.78
67840;BME280;54636;51.684;5.142;2023-02-22T12:43:24;101145.75;;;11.18;97.27
67840;BME280;54636;51.684;5.142;2023-02-22T12:46:15;101153.25;;;11.23;96.52
67840;BME280;54636;51.684;5.142;2023-02-22T12:48:58;101157.59;;;11.15;94.84
67840;BME280;54636;51.684;5.142;2023-02-22T12:56:52;101163.28;;;10.77;93.62
67840;BME280;54636;51.684;5.142;2023-02-22T12:59:32;101160.38;;;10.66;95.79
67840;BME280;54636;51.684;5.142;2023-02-22T13:02:33;101161.69;;;10.70;96.70
67840;BME280;54636;51.684;5.142;2023-02-22T13:05:00;101168.94;;;10.59;95.85
67840;BME280;54636;51.684;5.142;2023-02-22T13:07:37;101163.88;;;10.51;95.39
67840;BME280;54636;51.684;5.142;2023-02-22T13:15:36;101157.06;;;10.41;97.47
67840;BME280;54636;51.684;5.142;2023-02-22T13:21:12;101157.94;;;10.33;97.67
67840;BME280;54636;51.684;5.142;2023-02-22T13:23:54;101157.66;;;10.31;98.79
67840;BME280;54636;51.684;5.142;2023-02-22T13:26:47;101158.97;;;10.35;98.43
67840;BME280;54636;51.684;5.142;2023-02-22T13:29:45;101147.91;;;10.39;99.60
67840;BME280;54636;51.684;5.142;2023-02-22T13:32:52;101149.88;;;10.38;98.30
67840;BME280;54636;51.684;5.142;2023-02-22T13:38:27;101144.75;;;10.26;99.00
67840;BME280;54636;51.684;5.142;2023-02-22T13:41:10;101161.03;;;10.26;99.46
67840;BME280;54636;51.684;5.142;2023-02-22T13:44:08;101164.03;;;10.28;99.72
67840;BME280;54636;51.684;5.142;2023-02-22T13:49:37;101165.28;;;10.47;98.84
67840;BME280;54636;51.684;5.142;2023-02-22T13:52:19;101161.75;;;10.41;99.08
67840;BME280;54636;51.684;5.142;2023-02-22T13:54:51;101159.38;;;10.48;98.70
67840;BME280;54636;51.684;5.142;2023-02-22T14:07:59;101171.41;;;10.77;97.52
67840;BME280;54636;51.684;5.142;2023-02-22T14:13:20;101174.22;;;10.82;96.56
67840;BME280;54636;51.684;5.142;2023-02-22T14:18:23;101169.34;;;10.86;95.74
67840;BME280;54636;51.684;5.142;2023-02-22T14:21:17;101176.75;;;10.86;96.29
67840;BME280;54636;51.684;5.142;2023-02-22T14:23:50;101172.72;;;10.81;95.17
67840;BME280;54636;51.684;5.142;2023-02-22T14:26:34;101180.78;;;10.76;96.04
67840;BME280;54636;51.684;5.142;2023-02-22T14:34:39;101182.59;;;10.64;96.88
67840;BME280;54636;51.684;5.142;2023-02-22T14:37:08;101177.81;;;10.59;96.03
67840;BME280;54636;51.684;5.142;2023-02-22T14:45:04;101176.63;;;10.45;97.10
67840;BME280;54636;51.684;5.142;2023-02-22T14:47:59;101180.75;;;10.41;97.97
67840;BME280;54636;51.684;5.142;2023-02-22T14:50:40;101178.31;;;10.43;97.97
67840;BME280;54636;51.684;5.142;2023-02-22T14:53:26;101178.03;;;10.41;97.89
67840;BME280;54636;51.684;5.142;2023-02-22T14:56:12;101172.34;;;10.39;97.86
67840;BME280;54636;51.684;5.142;2023-02-22T14:58:52;101176.00;;;10.36;97.74
67840;BME280;54636;51.684;5.142;2023-02-22T15:01:30;101178.81;;;10.27;98.45
67840;BME280;54636;51.684;5.142;2023-02-22T15:04:20;101175.53;;;10.22;98.46